M I D A S
Marine Information and Data Acquisition System
Tripno 1869 of the Zeeleeuw from 2010-04-27 06:24:28 to 2010-04-27 13:59:42
Back to CruiseResearch ActivitiesStationsMapUnderway DataData graphs

EquipmentUnitsComment
TimeDGPSUTC
LatitudeDGPSDM.mWGS84
LongitudeDGPSDM.mWGS84
HeadingGyrodeg 
SOGDGPSknotsSpeed over ground
COGDGPSdegCourse over ground
DepthEcho soundermeters200 kHz
Missing or incorrect values are displayed as -999
Navigation data collected by the RV Zeeleeuw from 2010-04-27 05:51:42 to 2010-04-27 14:10:25
Time Latitude Longitude Heading SOG COG Depth
2010-04-27 05:52:47 51°13.662 2°55.96 126.5 -999 15 -999
2010-04-27 05:53:47 51°13.662 2°55.96 127.4 -999 27 -999
2010-04-27 05:54:48 51°13.662 2°55.96 126.4 -999 183 -999
2010-04-27 05:55:47 51°13.662 2°55.96 126 -999 43 -999
2010-04-27 05:56:47 51°13.663 2°55.96 126.8 -999 11 -999
2010-04-27 05:57:48 51°13.663 2°55.959 127.1 -999 179 -999
2010-04-27 05:58:47 51°13.663 2°55.959 127.1 -999 355 -999
2010-04-27 05:59:47 51°13.663 2°55.96 126.5 -999 351 -999
2010-04-27 06:00:48 51°13.663 2°55.96 126.6 -999 139 -999
2010-04-27 06:01:47 51°13.663 2°55.961 126.6 -999 4 -999
2010-04-27 06:02:48 51°13.663 2°55.96 126.5 0.1 16 -999
2010-04-27 06:03:47 51°13.663 2°55.96 127.1 -999 157 -999
2010-04-27 06:04:47 51°13.662 2°55.959 126.6 -999 219 4.6
2010-04-27 06:05:47 51°13.662 2°55.959 126.8 -999 128 4.5
2010-04-27 06:06:47 51°13.662 2°55.959 126.6 -999 210 4.8
2010-04-27 06:07:46 51°13.662 2°55.959 126.4 0.1 330 4.6
2010-04-27 06:08:45 51°13.662 2°55.959 126.4 -999 304 4.6
2010-04-27 06:09:46 51°13.662 2°55.959 126.4 -999 150 4.5
2010-04-27 06:10:45 51°13.662 2°55.959 126.2 -999 16 4.6
2010-04-27 06:11:45 51°13.662 2°55.959 124.8 -999 161 4.6
2010-04-27 06:12:43 51°13.662 2°55.959 124.9 -999 151 4.6
2010-04-27 06:13:43 51°13.662 2°55.96 125.1 0.1 143 4.6
2010-04-27 06:14:43 51°13.662 2°55.961 126.4 -999 261 4.6
2010-04-27 06:15:43 51°13.662 2°55.961 127.5 0.1 18 4.6
2010-04-27 06:16:43 51°13.662 2°55.96 128.2 -999 355 4.6
2010-04-27 06:17:44 51°13.662 2°55.96 129.1 0.1 227 4.7
2010-04-27 06:18:44 51°13.661 2°55.961 125.1 -999 175 4.7
2010-04-27 06:19:43 51°13.661 2°55.96 117.7 -999 208 4.8
2010-04-27 06:20:43 51°13.662 2°55.958 110.5 0.9 292 4.7
2010-04-27 06:21:47 51°13.68 2°55.879 104.7 3.9 286 -999
2010-04-27 06:22:47 51°13.69 2°55.785 91 2.9 276 10.7
2010-04-27 06:23:47 51°13.695 2°55.769 50.1 0.4 339 -999
2010-04-27 06:24:47 51°13.691 2°55.754 24.5 1 7 -999
2010-04-27 06:25:47 51°13.744 2°55.715 330.4 5.7 328 -999
2010-04-27 06:26:47 51°13.846 2°55.623 334.8 7.7 334 4.6
2010-04-27 06:27:47 51°13.97 2°55.535 337.9 8.5 336 9.9
2010-04-27 06:28:47 51°14.104 2°55.44 338.4 9.2 335 9.8
2010-04-27 06:29:46 51°14.242 2°55.326 331.5 9.8 330 9
2010-04-27 06:30:44 51°14.384 2°55.188 329.9 10.9 327 9.5
2010-04-27 06:31:43 51°14.548 2°55.014 323.7 13.2 315 10.4
2010-04-27 06:32:43 51°14.721 2°54.778 330.2 13.7 323 11
2010-04-27 06:33:43 51°14.905 2°54.563 326.7 13.8 322 10.3
2010-04-27 06:34:43 51°15.014 2°54.275 279.4 13.5 266 7.2
2010-04-27 06:35:43 51°14.865 2°54.021 200.3 14 204 8
2010-04-27 06:36:43 51°14.64 2°53.884 194.9 14.6 197 8.3
2010-04-27 06:37:43 51°14.407 2°53.792 192 14.3 197 8.3
2010-04-27 06:38:43 51°14.207 2°53.595 227.9 14.4 230 8.1
2010-04-27 06:39:43 51°14.057 2°53.289 226.8 14.9 225 8.4
2010-04-27 06:40:43 51°13.881 2°53.012 228.3 14.9 229 8.4
2010-04-27 06:41:43 51°13.738 2°52.687 236.8 15 235 8.6
2010-04-27 06:42:43 51°13.599 2°52.354 240.9 15.1 241 8.7
2010-04-27 06:43:43 51°13.468 2°52.01 238.5 15.2 238 8.8
2010-04-27 06:44:43 51°13.34 2°51.66 240 15.3 238 8.9
2010-04-27 06:45:43 51°13.205 2°51.316 240.3 15.3 239 8.9
2010-04-27 06:46:43 51°13.073 2°50.971 239.5 15.2 239 9
2010-04-27 06:47:43 51°12.938 2°50.629 237.8 15.2 237 9.1
2010-04-27 06:48:43 51°12.805 2°50.285 238.6 15.2 238 9.1
2010-04-27 06:49:43 51°12.675 2°49.938 240.7 15.2 240 9
2010-04-27 06:50:43 51°12.549 2°49.589 244.9 15.3 244 9
2010-04-27 06:51:43 51°12.459 2°49.207 255.3 15.5 253 9.3
2010-04-27 06:52:43 51°12.38 2°48.814 253.9 15.4 252 9.9
2010-04-27 06:53:43 51°12.3 2°48.426 253.5 15.4 251 10.5
2010-04-27 06:54:43 51°12.219 2°48.039 252.9 15.4 252 11
2010-04-27 06:55:43 51°12.14 2°47.652 254.1 15.4 253 11.3
2010-04-27 06:56:43 51°12.074 2°47.258 255.7 15.4 253 11.6
2010-04-27 06:57:43 51°12.002 2°46.865 255.6 15.5 254 11.7
2010-04-27 06:58:43 51°11.934 2°46.471 256.8 15.5 255 11.8
2010-04-27 06:59:43 51°11.874 2°46.071 258.4 15.4 257 11.9
2010-04-27 07:00:43 51°11.817 2°45.671 259.3 15.5 257 11.9
2010-04-27 07:01:43 51°11.763 2°45.286 258.8 13.2 257 12
2010-04-27 07:02:43 51°11.723 2°45.036 257 7.6 256 12.1
2010-04-27 07:03:43 51°11.711 2°44.871 278.3 5.4 272 12
2010-04-27 07:04:43 51°11.717 2°44.744 283 4.4 274 11.8
2010-04-27 07:05:43 51°11.717 2°44.635 275.2 3.9 268 11.6
2010-04-27 07:06:43 51°11.712 2°44.535 272.4 3.7 265 11.6
2010-04-27 07:07:43 51°11.706 2°44.44 273.8 3.5 265 11.5
2010-04-27 07:08:43 51°11.702 2°44.348 275.2 3.5 266 11.4
2010-04-27 07:09:43 51°11.697 2°44.258 275.3 3.4 265 11.2
2010-04-27 07:10:43 51°11.693 2°44.17 274.6 3.3 266 11
2010-04-27 07:11:43 51°11.688 2°44.085 272.7 3.1 264 10.9
2010-04-27 07:12:43 51°11.682 2°44.006 272 2.9 264 10.8
2010-04-27 07:13:43 51°11.676 2°43.93 273.8 2.9 263 10.8
2010-04-27 07:14:43 51°11.671 2°43.856 274.7 2.8 267 10.7
2010-04-27 07:15:43 51°11.666 2°43.784 274.7 2.7 263 10.6
2010-04-27 07:16:43 51°11.66 2°43.713 274.4 2.7 263 10.5
2010-04-27 07:17:43 51°11.655 2°43.643 274.4 2.6 264 10.4
2010-04-27 07:18:43 51°11.648 2°43.573 273.7 2.6 262 10.4
2010-04-27 07:19:43 51°11.642 2°43.505 273.9 2.6 262 10.2
2010-04-27 07:20:43 51°11.637 2°43.436 274.4 2.6 260 10
2010-04-27 07:21:43 51°11.635 2°43.367 290 2.6 274 10
2010-04-27 07:22:43 51°11.647 2°43.305 318.5 2.3 299 9.8
2010-04-27 07:23:43 51°11.671 2°43.264 345.2 2 326 9.6
2010-04-27 07:24:43 51°11.7 2°43.245 1.8 1.9 343 9.3
2010-04-27 07:25:43 51°11.73 2°43.228 355.4 1.8 335 9.2
2010-04-27 07:26:43 51°11.753 2°43.204 345.8 1.5 320 8.8
2010-04-27 07:27:43 51°11.769 2°43.176 337.5 1.4 304 8.7
2010-04-27 07:28:43 51°11.778 2°43.145 328.6 1.3 287 8.5
2010-04-27 07:29:43 51°11.782 2°43.114 321.6 1.2 273 8.6
2010-04-27 07:30:43 51°11.783 2°43.083 316.1 1.1 268 8.7
2010-04-27 07:31:43 51°11.781 2°43.055 312.9 1 262 8.8
2010-04-27 07:32:43 51°11.777 2°43.027 312.6 1 257 8.8
2010-04-27 07:33:43 51°11.772 2°43.003 315.6 1 245 8.9
2010-04-27 07:34:43 51°11.766 2°42.98 319.7 0.9 251 8.8
2010-04-27 07:35:43 51°11.76 2°42.958 325.2 0.9 245 8.9
2010-04-27 07:36:43 51°11.753 2°42.938 331.3 0.8 237 8.8
2010-04-27 07:37:43 51°11.747 2°42.92 337.6 0.7 247 8.9
2010-04-27 07:38:43 51°11.751 2°42.883 304.6 2.2 278 8.9
2010-04-27 07:39:43 51°11.742 2°42.811 252.7 3.4 243 9
2010-04-27 07:40:43 51°11.702 2°42.726 232.3 4.8 230 9.3
2010-04-27 07:41:43 51°11.641 2°42.604 232.5 6.5 231 9.7
2010-04-27 07:42:43 51°11.573 2°42.46 239.5 7 237 10.2
2010-04-27 07:43:43 51°11.508 2°42.28 239 8.5 237 10.5
2010-04-27 07:44:43 51°11.42 2°42.091 233.1 9 233 11
2010-04-27 07:45:43 51°11.316 2°41.869 233.9 11.6 234 11.3
2010-04-27 07:46:43 51°11.199 2°41.615 234.4 12.1 234 11.7
2010-04-27 07:47:43 51°11.079 2°41.356 234.1 12.2 234 12
2010-04-27 07:48:43 51°10.96 2°41.095 234.5 12.2 234 12.3
2010-04-27 07:49:43 51°10.84 2°40.834 234.2 12.3 234 12.5
2010-04-27 07:50:43 51°10.732 2°40.556 239.9 12.4 240 12.8
2010-04-27 07:51:43 51°10.627 2°40.27 239.2 12.6 240 13.4
2010-04-27 07:52:43 51°10.523 2°39.981 240 12.6 240 13.7
2010-04-27 07:53:43 51°10.419 2°39.692 239.2 12.6 240 14
2010-04-27 07:54:43 51°10.314 2°39.405 239.6 12.5 240 14.3
2010-04-27 07:55:43 51°10.211 2°39.118 239.5 12.5 240 14.8
2010-04-27 07:56:43 51°10.107 2°38.832 239.5 12.5 240 14.8
2010-04-27 07:57:43 51°10.003 2°38.546 239 12.5 240 14.9
2010-04-27 07:58:43 51°9.875 2°38.288 227.8 12.4 229 14.6
2010-04-27 07:59:43 51°9.763 2°38.079 227.3 8.6 230 14.4
2010-04-27 08:00:43 51°9.681 2°37.92 229 7.2 231 14
2010-04-27 08:01:43 51°9.609 2°37.777 228.8 6.8 232 13.6
2010-04-27 08:02:43 51°9.54 2°37.642 228.9 5.9 231 13.3
2010-04-27 08:03:43 51°9.487 2°37.551 210.6 3 221 13
2010-04-27 08:04:44 51°9.482 2°37.521 185.4 0.9 272 -999
2010-04-27 08:05:45 51°9.48 2°37.496 182.4 0.9 263 13.2
2010-04-27 08:06:43 51°9.477 2°37.473 179 0.9 255 13.3
2010-04-27 08:07:43 51°9.472 2°37.45 169.9 0.9 249 13.2
2010-04-27 08:08:43 51°9.465 2°37.428 162.4 0.9 242 13.3
2010-04-27 08:09:43 51°9.457 2°37.407 158.2 1 239 13.3
2010-04-27 08:10:43 51°9.449 2°37.386 156.1 0.9 238 13.2
2010-04-27 08:11:43 51°9.44 2°37.365 152.7 1 234 13.3
2010-04-27 08:13:03 51°9.428 2°37.339 147.1 0.9 235 13.3
2010-04-27 08:14:09 51°9.418 2°37.318 143.8 0.9 234 13.3
2010-04-27 08:15:04 51°9.404 2°37.316 119.1 1.7 140 13.1
2010-04-27 08:16:59 51°9.457 2°37.492 60.5 5.6 57 13
2010-04-27 08:17:59 51°9.5 2°37.548 25.1 1.5 357 13.4
2010-04-27 08:18:59 51°9.511 2°37.53 343.9 1 289 13.7
2010-04-27 08:19:59 51°9.515 2°37.502 331.1 1.2 278 13.9
2010-04-27 08:20:59 51°9.517 2°37.473 326 1.1 274 14.1
2010-04-27 08:21:59 51°9.518 2°37.444 325.2 1.1 274 14.3
2010-04-27 08:22:59 51°9.518 2°37.417 328.1 1 270 14.4
2010-04-27 08:23:59 51°9.519 2°37.392 333.4 0.9 272 14.6
2010-04-27 08:24:59 51°9.519 2°37.369 338.9 0.9 272 14.8
2010-04-27 08:25:59 51°9.519 2°37.349 345.1 0.8 268 14.9
2010-04-27 08:26:59 51°9.519 2°37.332 352.8 0.6 272 15.1
2010-04-27 08:27:59 51°9.52 2°37.315 0.9 0.6 278 15.2
2010-04-27 08:28:59 51°9.521 2°37.302 8.8 0.5 274 15.4
2010-04-27 08:29:59 51°9.522 2°37.29 15.5 0.4 278 15.4
2010-04-27 08:30:59 51°9.522 2°37.279 20.3 0.4 272 15.5
2010-04-27 08:31:59 51°9.522 2°37.269 22.4 0.4 271 15.6
2010-04-27 08:32:59 51°9.521 2°37.261 23.7 0.3 255 15.7
2010-04-27 08:33:59 51°9.52 2°37.252 22.9 0.4 251 15.7
2010-04-27 08:34:59 51°9.527 2°37.254 44.3 1.3 42 15.9
2010-04-27 08:35:59 51°9.531 2°37.302 100.2 2.5 108 15.6
2010-04-27 08:36:59 51°9.511 2°37.38 104.8 3.6 110 14.8
2010-04-27 08:37:59 51°9.502 2°37.48 87.2 4 92 14.2
2010-04-27 08:38:59 51°9.487 2°37.585 104.3 3.6 111 13.5
2010-04-27 08:39:59 51°9.469 2°37.633 108.2 1.1 126 13.2
2010-04-27 08:40:59 51°9.461 2°37.655 93 0.9 122 12.9
2010-04-27 08:41:59 51°9.454 2°37.672 90.8 0.6 117 12.9
2010-04-27 08:42:59 51°9.447 2°37.684 88.6 0.6 136 12.9
2010-04-27 08:43:59 51°9.443 2°37.694 85.5 0.5 137 12.8
2010-04-27 08:44:59 51°9.437 2°37.701 82.9 0.4 139 12.7
2010-04-27 08:45:59 51°9.432 2°37.707 80.1 0.3 149 12.7
2010-04-27 08:46:59 51°9.427 2°37.71 76.1 0.4 160 12.7
2010-04-27 08:47:59 51°9.422 2°37.712 71.6 0.3 171 12.7
2010-04-27 08:48:59 51°9.417 2°37.713 67.4 0.2 193 12.6
2010-04-27 08:49:59 51°9.412 2°37.713 63.2 0.3 173 12.6
2010-04-27 08:50:59 51°9.408 2°37.713 58.8 0.3 182 12.7
2010-04-27 08:51:59 51°9.403 2°37.713 54.5 0.3 178 12.6
2010-04-27 08:52:59 51°9.398 2°37.713 50.8 0.2 198 12.6
2010-04-27 08:53:59 51°9.392 2°37.713 47.3 0.3 182 12.6
2010-04-27 08:54:59 51°9.387 2°37.713 45.1 0.4 170 12.7
2010-04-27 08:55:59 51°9.381 2°37.714 44.6 0.3 169 12.5
2010-04-27 08:56:59 51°9.376 2°37.716 45.1 0.3 162 12.6
2010-04-27 08:57:59 51°9.371 2°37.72 46.5 0.3 155 12.6
2010-04-27 08:58:59 51°9.365 2°37.724 49.3 0.3 153 12.5
2010-04-27 08:59:59 51°9.361 2°37.729 52.5 0.3 147 12.6
2010-04-27 09:00:59 51°9.356 2°37.735 56.4 0.2 128 12.5
2010-04-27 09:01:59 51°9.374 2°37.756 11 2.7 8 12.6
2010-04-27 09:02:59 51°9.418 2°37.693 291.7 4.8 290 13.2
2010-04-27 09:03:59 51°9.45 2°37.575 304.2 4.6 305 13.9
2010-04-27 09:04:59 51°9.489 2°37.515 316.3 1.9 321 14.7
2010-04-27 09:05:59 51°9.497 2°37.504 283.8 0.5 318 14.9
2010-04-27 09:06:59 51°9.5 2°37.496 272.9 0.3 272 15
2010-04-27 09:07:59 51°9.501 2°37.489 270.2 0.2 285 15.1
2010-04-27 09:08:59 51°9.501 2°37.485 270.6 0.1 251 15.3
2010-04-27 09:09:59 51°9.502 2°37.483 271.2 0.1 322 15.3
2010-04-27 09:10:59 51°9.503 2°37.481 273.3 0.1 338 15.3
2010-04-27 09:11:59 51°9.503 2°37.482 276.5 0.1 53 15.4
2010-04-27 09:12:59 51°9.505 2°37.484 280.7 0.2 31 15.4
2010-04-27 09:13:59 51°9.508 2°37.487 285.2 0.3 32 15.4
2010-04-27 09:14:59 51°9.51 2°37.492 290.1 0.2 81 15.5
2010-04-27 09:15:59 51°9.514 2°37.498 295.4 0.3 48 15.5
2010-04-27 09:16:59 51°9.519 2°37.506 300.2 0.5 43 15.6
2010-04-27 09:17:59 51°9.524 2°37.515 304.9 0.4 49 15.8
2010-04-27 09:18:59 51°9.529 2°37.525 309.8 0.5 45 15.8
2010-04-27 09:19:59 51°9.535 2°37.537 314.8 0.7 51 15.8
2010-04-27 09:20:59 51°9.542 2°37.55 319.4 0.6 52 15.9
2010-04-27 09:21:59 51°9.548 2°37.565 323.8 0.7 52 15.9
2010-04-27 09:22:59 51°9.556 2°37.58 329.5 0.8 51 15.9
2010-04-27 09:23:59 51°9.565 2°37.598 336.1 0.9 51 16.1
2010-04-27 09:24:59 51°9.575 2°37.618 341.6 1 55 16.1
2010-04-27 09:25:59 51°9.585 2°37.639 345.4 0.9 56 16.3
2010-04-27 09:26:59 51°9.609 2°37.635 301.4 2.4 315 16.6
2010-04-27 09:27:59 51°9.598 2°37.574 220 3.2 209 16.7
2010-04-27 09:28:59 51°9.524 2°37.55 195.6 5.4 188 15.7
2010-04-27 09:29:59 51°9.449 2°37.522 214.1 2.7 198 15
2010-04-27 09:30:59 51°9.426 2°37.524 200.4 1.3 161 14.7
2010-04-27 09:31:59 51°9.407 2°37.539 196.5 1.3 149 14.6
2010-04-27 09:32:59 51°9.392 2°37.558 197.3 1.2 135 14.3
2010-04-27 09:33:59 51°9.38 2°37.577 200.4 0.9 130 14.3
2010-04-27 09:34:59 51°9.371 2°37.597 204.2 0.9 122 14.1
2010-04-27 09:35:59 51°9.365 2°37.617 208.5 0.8 113 14
2010-04-27 09:36:59 51°9.361 2°37.639 211.3 1 105 13.9
2010-04-27 09:37:59 51°9.359 2°37.662 212.8 0.9 98 13.9
2010-04-27 09:38:59 51°9.358 2°37.686 215.1 0.9 93 13.8
2010-04-27 09:39:59 51°9.358 2°37.709 219.7 0.8 83 13.8
2010-04-27 09:40:59 51°9.36 2°37.733 225.4 0.9 85 13.8
2010-04-27 09:41:59 51°9.362 2°37.756 230.7 0.9 80 13.8
2010-04-27 09:42:59 51°9.366 2°37.779 236.1 0.9 74 13.8
2010-04-27 09:43:59 51°9.371 2°37.803 240.4 1 75 13.9
2010-04-27 09:44:59 51°9.376 2°37.827 243 1 66 13.8
2010-04-27 09:45:59 51°9.38 2°37.852 246.2 1 74 13.8
2010-04-27 09:46:59 51°9.386 2°37.878 249 1.1 70 13.8
2010-04-27 09:47:59 51°9.392 2°37.904 251.8 1.1 60 13.7
2010-04-27 09:48:59 51°9.399 2°37.932 254.3 1.2 68 13.8
2010-04-27 09:49:59 51°9.399 2°37.942 239.9 1.6 236 13.8
2010-04-27 09:50:59 51°9.38 2°37.834 263.6 5.8 270 13.9
2010-04-27 09:51:59 51°9.417 2°37.684 293.4 5.7 304 14.6
2010-04-27 09:52:59 51°9.447 2°37.57 271 4.2 280 15.3
2010-04-27 09:53:59 51°9.454 2°37.467 266 3.3 277 15.8
2010-04-27 09:54:59 51°9.472 2°37.434 305.4 1.5 -999 16.3
2010-04-27 09:55:59 51°9.499 2°37.444 322.2 1.8 21 16.7
2010-04-27 09:56:59 51°9.525 2°37.466 325.1 1.8 32 17
2010-04-27 09:57:59 51°9.549 2°37.493 324.9 1.8 39 17
2010-04-27 09:58:59 51°9.571 2°37.522 323.6 1.6 43 17.3
2010-04-27 09:59:59 51°9.59 2°37.555 323.3 1.7 47 17.5
2010-04-27 10:00:59 51°9.608 2°37.589 324.2 1.7 52 17.5
2010-04-27 10:01:59 51°9.625 2°37.626 325.9 1.8 54 17.6
2010-04-27 10:02:59 51°9.641 2°37.664 327.8 1.7 58 17.7
2010-04-27 10:03:59 51°9.657 2°37.704 329.4 1.7 59 17.7
2010-04-27 10:04:59 51°9.672 2°37.745 331.2 1.8 61 17.8
2010-04-27 10:05:59 51°9.686 2°37.786 333 1.8 62 17.8
2010-04-27 10:06:59 51°9.7 2°37.828 333.5 1.8 62 17.8
2010-04-27 10:07:59 51°9.714 2°37.872 332.2 1.8 64 17.8
2010-04-27 10:08:59 51°9.727 2°37.916 331.2 1.9 63 17.8
2010-04-27 10:09:59 51°9.739 2°37.96 329.5 1.7 66 17.8
2010-04-27 10:10:59 51°9.752 2°38.004 327.1 1.8 65 17.8
2010-04-27 10:11:59 51°9.764 2°38.048 323 2 65 17.6
2010-04-27 10:12:59 51°9.775 2°38.092 316.6 1.8 67 17.7
2010-04-27 10:13:59 51°9.787 2°38.137 309.6 2 66 17.5
2010-04-27 10:14:59 51°9.798 2°38.182 303.4 1.8 70 17.6
2010-04-27 10:15:59 51°9.81 2°38.228 297.4 1.8 72 17.7
2010-04-27 10:16:59 51°9.822 2°38.275 292.7 2 67 17.5
2010-04-27 10:17:59 51°9.835 2°38.322 290.5 1.9 67 17.6
2010-04-27 10:18:59 51°9.847 2°38.37 289.6 1.9 69 17.3
2010-04-27 10:19:59 51°9.86 2°38.418 289.1 1.9 67 17.3
2010-04-27 10:20:59 51°9.873 2°38.467 287.9 1.9 68 17.3
2010-04-27 10:21:59 51°9.885 2°38.515 285.8 2 68 17.2
2010-04-27 10:22:59 51°9.897 2°38.562 282.8 1.5 53 17.3
2010-04-27 10:23:59 51°9.915 2°38.544 272.4 2.1 295 17.5
2010-04-27 10:24:59 51°9.918 2°38.473 258.5 3.2 264 17.8
2010-04-27 10:25:59 51°9.911 2°38.382 256.4 3.5 258 18.1
2010-04-27 10:26:59 51°9.886 2°38.295 241.7 3.6 239 18.1
2010-04-27 10:27:59 51°9.853 2°38.21 242.5 3.8 238 18.2
2010-04-27 10:28:59 51°9.822 2°38.123 243.6 3.8 244 18.1
2010-04-27 10:29:59 51°9.792 2°38.034 243.9 3.8 240 18.1
2010-04-27 10:30:59 51°9.763 2°37.946 243.9 3.9 241 18.3
2010-04-27 10:31:59 51°9.734 2°37.858 243.9 3.7 243 18.1
2010-04-27 10:32:59 51°9.705 2°37.771 244.4 3.7 243 18.2
2010-04-27 10:33:59 51°9.676 2°37.685 244.1 3.7 243 18.3
2010-04-27 10:34:59 51°9.648 2°37.598 244.7 3.8 244 18.3
2010-04-27 10:35:59 51°9.62 2°37.512 244.6 3.6 243 18.3
2010-04-27 10:36:59 51°9.593 2°37.425 244.5 3.7 241 18.4
2010-04-27 10:37:59 51°9.564 2°37.339 244 3.7 241 18.6
2010-04-27 10:38:59 51°9.534 2°37.251 244.6 3.8 240 18.7
2010-04-27 10:39:59 51°9.504 2°37.163 243.9 3.8 242 18.6
2010-04-27 10:40:59 51°9.474 2°37.076 243.8 3.8 241 18.7
2010-04-27 10:41:59 51°9.444 2°36.988 244.6 3.8 240 18.7
2010-04-27 10:42:59 51°9.415 2°36.9 244.1 3.8 241 18.7
2010-04-27 10:43:59 51°9.385 2°36.812 243.9 3.8 241 18.8
2010-04-27 10:44:59 51°9.357 2°36.726 244 3.7 243 18.8
2010-04-27 10:45:59 51°9.328 2°36.639 244.6 3.7 243 19
2010-04-27 10:46:59 51°9.3 2°36.551 244.2 3.6 242 19.1
2010-04-27 10:47:59 51°9.272 2°36.463 244 3.8 242 19
2010-04-27 10:48:59 51°9.244 2°36.375 244.3 3.7 243 19
2010-04-27 10:49:59 51°9.216 2°36.288 244.1 3.7 243 18.9
2010-04-27 10:50:59 51°9.188 2°36.201 244.4 3.7 240 19
2010-04-27 10:51:59 51°9.162 2°36.113 245.8 3.6 248 19
2010-04-27 10:52:59 51°9.14 2°36.022 247.7 3.7 250 19
2010-04-27 10:53:59 51°9.117 2°35.932 247.1 3.7 246 19.4
2010-04-27 10:54:59 51°9.094 2°35.843 247.3 3.6 248 19.3
2010-04-27 10:55:59 51°9.071 2°35.755 247.7 3.6 248 19.5
2010-04-27 10:56:59 51°9.049 2°35.665 247.8 3.6 248 19.5
2010-04-27 10:57:59 51°9.026 2°35.576 247.2 3.7 248 19.6
2010-04-27 10:58:59 51°9.003 2°35.485 247.5 3.7 248 19.6
2010-04-27 10:59:59 51°8.98 2°35.393 247.2 3.7 248 19.7
2010-04-27 11:00:59 51°8.957 2°35.3 247.2 3.8 249 19.6
2010-04-27 11:01:59 51°8.932 2°35.205 246.9 3.9 247 19.7
2010-04-27 11:02:59 51°8.909 2°35.11 246.8 3.9 247 19.7
2010-04-27 11:03:59 51°8.884 2°35.013 247.6 4 247 19.7
2010-04-27 11:04:59 51°8.856 2°34.914 247.6 4.2 247 19.7
2010-04-27 11:05:59 51°8.833 2°34.812 248.3 4.1 251 19.9
2010-04-27 11:06:59 51°8.811 2°34.709 246.8 4.1 252 20
2010-04-27 11:07:59 51°8.79 2°34.607 246.7 4.1 250 20.2
2010-04-27 11:08:59 51°8.769 2°34.504 247 4.1 252 20.3
2010-04-27 11:09:59 51°8.749 2°34.401 247.1 4.1 251 20.4
2010-04-27 11:10:59 51°8.729 2°34.298 246.5 4.1 253 20
2010-04-27 11:11:59 51°8.709 2°34.195 247.4 4.1 253 20.5
2010-04-27 11:12:59 51°8.689 2°34.091 247.4 4.1 254 19.9
2010-04-27 11:13:59 51°8.67 2°33.988 247.1 4.1 252 19.7
2010-04-27 11:14:59 51°8.651 2°33.885 247.2 4 254 19.4
2010-04-27 11:15:59 51°8.633 2°33.784 247 3.9 254 19
2010-04-27 11:16:59 51°8.616 2°33.684 246.5 3.8 249 19.1
2010-04-27 11:17:59 51°8.588 2°33.597 236.6 3.7 233 19.1
2010-04-27 11:18:59 51°8.543 2°33.532 226.5 3.8 218 19
2010-04-27 11:19:59 51°8.495 2°33.466 230.1 3.8 229 19.5
2010-04-27 11:20:59 51°8.452 2°33.391 227.4 3.9 225 19.2
2010-04-27 11:21:59 51°8.405 2°33.316 228 4 224 19.4
2010-04-27 11:22:59 51°8.358 2°33.24 229.2 4 227 19.9
2010-04-27 11:23:59 51°8.311 2°33.163 229.7 4.1 228 20.2
2010-04-27 11:24:59 51°8.265 2°33.086 229 3.5 225 20
2010-04-27 11:25:59 51°8.235 2°33.038 232 2 226 19.8
2010-04-27 11:26:59 51°8.222 2°33.008 242 0.9 250 20.1
2010-04-27 11:27:59 51°8.222 2°32.992 249.7 0.5 298 20.2
2010-04-27 11:28:59 51°8.229 2°32.986 254.8 0.5 349 20
2010-04-27 11:29:59 51°8.239 2°32.988 260 0.6 17 20.1
2010-04-27 11:30:59 51°8.252 2°32.996 263.6 0.9 28 20
2010-04-27 11:31:59 51°8.266 2°33.01 267.9 1 37 20.5
2010-04-27 11:32:59 51°8.281 2°33.028 273.6 1.2 37 20
2010-04-27 11:33:59 51°8.297 2°33.05 278.1 1.3 43 19.9
2010-04-27 11:34:59 51°8.313 2°33.074 282.7 1.4 44 19.7
2010-04-27 11:35:59 51°8.329 2°33.1 286.4 1.4 46 19.8
2010-04-27 11:36:59 51°8.346 2°33.127 289.8 1.4 47 19.1
2010-04-27 11:37:59 51°8.363 2°33.156 292.4 1.5 49 19.5
2010-04-27 11:38:59 51°8.379 2°33.186 295.4 1.5 49 19.2
2010-04-27 11:39:59 51°8.396 2°33.218 298.3 1.6 51 19.5
2010-04-27 11:40:59 51°8.412 2°33.249 299.9 1.5 49 19.4
2010-04-27 11:41:59 51°8.439 2°33.261 313.7 2.2 4 19
2010-04-27 11:42:59 51°8.489 2°33.257 327.1 4.3 351 18.9
2010-04-27 11:43:59 51°8.584 2°33.271 358.4 5.9 15 19.3
2010-04-27 11:44:59 51°8.667 2°33.33 18.2 5.3 31 20
2010-04-27 11:45:59 51°8.735 2°33.416 36.4 5.1 44 20.3
2010-04-27 11:46:59 51°8.787 2°33.523 57.3 5.1 59 20
2010-04-27 11:47:59 51°8.817 2°33.646 83.3 4.9 76 19.8
2010-04-27 11:48:59 51°8.826 2°33.769 104.1 4.5 90 19.2
2010-04-27 11:49:59 51°8.823 2°33.888 112.1 4.5 92 18.9
2010-04-27 11:50:59 51°8.822 2°34.009 110.8 4.5 92 19.4
2010-04-27 11:51:59 51°8.816 2°34.126 121.7 4.3 99 19.5
2010-04-27 11:52:59 51°8.799 2°34.233 133.4 4 107 20
2010-04-27 11:53:59 51°8.779 2°34.334 132.9 4 107 20.1
2010-04-27 11:54:59 51°8.76 2°34.433 132.6 3.9 108 20.1
2010-04-27 11:55:59 51°8.739 2°34.529 134.8 3.8 111 19.9
2010-04-27 11:56:59 51°8.714 2°34.62 139.9 3.7 115 19.9
2010-04-27 11:57:59 51°8.686 2°34.706 141.4 3.7 118 19.5
2010-04-27 11:58:59 51°8.661 2°34.798 132.6 3.9 110 18.7
2010-04-27 11:59:59 51°8.642 2°34.897 121.9 4.1 104 17.2
2010-04-27 12:00:59 51°8.63 2°35.002 108.9 4.1 94 15.6
2010-04-27 12:01:59 51°8.631 2°35.112 94.1 4.2 84 14.4
2010-04-27 12:02:59 51°8.647 2°35.22 78.3 4.2 73 13.9
2010-04-27 12:03:59 51°8.676 2°35.323 62.7 4.3 62 13.8
2010-04-27 12:04:59 51°8.716 2°35.416 49.6 4.3 50 14.1
2010-04-27 12:05:59 51°8.762 2°35.505 47.5 4.4 51 14.8
2010-04-27 12:06:59 51°8.804 2°35.602 57.8 4.5 59 15
2010-04-27 12:07:59 51°8.842 2°35.705 59.6 4.5 60 15.1
2010-04-27 12:08:59 51°8.879 2°35.809 60.5 4.5 61 15.3
2010-04-27 12:09:59 51°8.914 2°35.915 60.6 4.5 62 15.3
2010-04-27 12:10:59 51°8.949 2°36.019 59.9 4.5 60 15.4
2010-04-27 12:11:59 51°8.985 2°36.123 59.8 4.5 62 15.5
2010-04-27 12:12:59 51°9.019 2°36.227 59.8 4.4 62 15.5
2010-04-27 12:13:59 51°9.055 2°36.331 59.1 4.5 60 15.6
2010-04-27 12:14:59 51°9.09 2°36.435 59.2 4.5 63 15.6
2010-04-27 12:15:59 51°9.125 2°36.54 59 4.5 61 15.5
2010-04-27 12:16:59 51°9.16 2°36.645 59.1 4.5 62 15.6
2010-04-27 12:17:59 51°9.196 2°36.75 59.4 4.5 61 15.6
2010-04-27 12:18:59 51°9.231 2°36.855 59.2 4.5 62 15.7
2010-04-27 12:19:59 51°9.267 2°36.96 59.3 4.5 61 15.6
2010-04-27 12:20:59 51°9.296 2°37.07 78.4 4.5 74 15.5
2010-04-27 12:21:59 51°9.31 2°37.185 90.3 4.3 83 15.2
2010-04-27 12:22:59 51°9.311 2°37.295 106.8 4 95 14.8
2010-04-27 12:23:59 51°9.296 2°37.392 122.6 3.7 112 14.4
2010-04-27 12:24:59 51°9.272 2°37.477 132.3 3.5 116 13.8
2010-04-27 12:25:59 51°9.24 2°37.546 159.5 2.9 140 13.4
2010-04-27 12:26:59 51°9.204 2°37.57 204.6 2 181 13.1
2010-04-27 12:27:59 51°9.184 2°37.545 252.9 1.4 260 13.1
2010-04-27 12:28:59 51°9.185 2°37.522 265 0.6 288 13.1
2010-04-27 12:29:59 51°9.189 2°37.513 267.2 0.3 323 13.2
2010-04-27 12:30:59 51°9.193 2°37.514 265.7 0.3 32 13.2
2010-04-27 12:31:59 51°9.196 2°37.517 264.3 0.4 294 13.2
2010-04-27 12:32:59 51°9.206 2°37.47 282.2 3.3 291 13.2
2010-04-27 12:33:59 51°9.256 2°37.311 297.8 7.1 304 14
2010-04-27 12:34:59 51°9.328 2°37.241 336.2 4.4 352 15.2
2010-04-27 12:35:59 51°9.391 2°37.259 1.6 3.6 21 15.9
2010-04-27 12:36:59 51°9.439 2°37.302 14.8 3.2 35 16.3
2010-04-27 12:37:59 51°9.479 2°37.351 20.6 2.8 40 16.5
2010-04-27 12:38:59 51°9.512 2°37.398 19.6 2.5 43 16.8
2010-04-27 12:39:59 51°9.541 2°37.44 12 2.2 41 17
2010-04-27 12:40:59 51°9.565 2°37.473 1.7 1.8 40 17.2
2010-04-27 12:41:59 51°9.585 2°37.502 353.8 1.5 42 17.4
2010-04-27 12:42:59 51°9.604 2°37.53 351.3 1.4 43 17.5
2010-04-27 12:43:59 51°9.62 2°37.556 351.7 1.4 48 17.6
2010-04-27 12:44:59 51°9.636 2°37.584 354.5 1.4 51 17.6
2010-04-27 12:45:59 51°9.649 2°37.612 359.2 1.3 54 17.6
2010-04-27 12:46:59 51°9.662 2°37.641 4.5 1.4 58 17.7
2010-04-27 12:47:59 51°9.674 2°37.671 9.9 1.3 56 17.7
2010-04-27 12:48:59 51°9.685 2°37.7 15.9 1.3 59 17.6
2010-04-27 12:49:59 51°9.695 2°37.731 22.3 1.3 61 17.6
2010-04-27 12:50:59 51°9.704 2°37.762 30.1 1.3 67 17.6
2010-04-27 12:51:59 51°9.713 2°37.793 38.5 1.3 66 17.5
2010-04-27 12:52:59 51°9.72 2°37.824 47.6 1.3 68 17.4
2010-04-27 12:53:59 51°9.728 2°37.855 57 1.3 70 17.4
2010-04-27 12:54:59 51°9.734 2°37.886 65.4 1.2 69 17.3
2010-04-27 12:55:59 51°9.741 2°37.918 72.9 1.2 74 17.3
2010-04-27 12:56:59 51°9.746 2°37.948 79.2 1.2 71 17.2
2010-04-27 12:57:59 51°9.752 2°37.978 84.7 1.2 74 17
2010-04-27 12:58:59 51°9.757 2°38.009 89.7 1.2 77 17.1
2010-04-27 12:59:59 51°9.763 2°38.072 93.9 4.4 85 16.8
2010-04-27 13:00:59 51°9.764 2°38.258 94 8.5 88 16.1
2010-04-27 13:01:59 51°9.765 2°38.498 95 9.3 91 15
2010-04-27 13:02:59 51°9.772 2°38.744 84 9.4 81 14.3
2010-04-27 13:03:59 51°9.806 2°38.988 78.5 9.5 76 13.9
2010-04-27 13:04:59 51°9.84 2°39.235 80.2 9.6 78 13.6
2010-04-27 13:05:59 51°9.872 2°39.485 80.6 9.8 79 13.3
2010-04-27 13:06:59 51°9.904 2°39.743 80.8 9.9 79 13.1
2010-04-27 13:07:59 51°9.936 2°40.001 81.1 9.9 79 12.9
2010-04-27 13:08:59 51°9.969 2°40.27 81.1 11.8 79 12.7
2010-04-27 13:09:59 51°10.011 2°40.617 81.1 14.2 78 12.2
2010-04-27 13:10:59 51°10.057 2°40.992 81.2 14.4 79 11.8
2010-04-27 13:11:59 51°10.101 2°41.367 82.7 14.3 81 11.3
2010-04-27 13:12:59 51°10.138 2°41.745 83.3 14.5 82 10.9
2010-04-27 13:13:59 51°10.158 2°42.125 92.1 14.1 94 10.7
2010-04-27 13:14:59 51°10.133 2°42.398 105.4 8.5 99 10.8
2010-04-27 13:15:59 51°10.136 2°42.583 88.9 6 86 10.9
2010-04-27 13:16:59 51°10.139 2°42.693 88.9 2.1 79 11.1
2010-04-27 13:17:59 51°10.142 2°42.713 71.5 0.6 78 11
2010-04-27 13:18:59 51°10.146 2°42.729 74.3 0.7 75 5
2010-04-27 13:19:59 51°10.149 2°42.747 79.6 0.8 69 4.8
2010-04-27 13:20:59 51°10.153 2°42.767 84.5 0.8 72 11
2010-04-27 13:21:59 51°10.157 2°42.787 88.6 0.9 70 11
2010-04-27 13:22:59 51°10.161 2°42.809 91.9 0.9 76 11
2010-04-27 13:23:59 51°10.165 2°42.831 94.9 0.9 74 10.9
2010-04-27 13:24:59 51°10.17 2°42.888 83.8 4.4 79 11
2010-04-27 13:25:59 51°10.215 2°43.082 68.2 10.3 66 10.9
2010-04-27 13:26:59 51°10.314 2°43.377 59 14.1 57 10.7
2010-04-27 13:27:59 51°10.432 2°43.71 63.2 14.6 62 10.6
2010-04-27 13:28:59 51°10.55 2°44.05 60 14.7 58 10.3
2010-04-27 13:29:59 51°10.678 2°44.379 61.6 14.6 61 10.2
2010-04-27 13:30:59 51°10.8 2°44.712 55.7 14.5 53 10.1
2010-04-27 13:31:59 51°10.946 2°45.02 52.7 14.6 52 10.3
2010-04-27 13:32:59 51°11.09 2°45.328 53.7 14.5 53 10.7
2010-04-27 13:33:59 51°11.219 2°45.651 59.6 14.5 59 11
2010-04-27 13:34:59 51°11.345 2°45.977 58.9 14.5 57 11.3
2010-04-27 13:35:59 51°11.473 2°46.302 59.4 14.5 58 11.7
2010-04-27 13:36:59 51°11.603 2°46.63 59 14.7 58 12.1
2010-04-27 13:37:59 51°11.732 2°46.959 59 14.6 58 12.4
2010-04-27 13:38:59 51°11.861 2°47.288 59.2 14.8 58 12.8
2010-04-27 13:39:59 51°11.991 2°47.617 59.4 14.6 57 13
2010-04-27 13:40:59 51°12.121 2°47.942 58.9 14.5 57 13.3
2010-04-27 13:41:59 51°12.25 2°48.269 59.5 14.7 58 13.4
2010-04-27 13:42:59 51°12.38 2°48.599 59.5 14.7 58 13.5
2010-04-27 13:43:59 51°12.511 2°48.929 59.6 14.8 58 13.4
2010-04-27 13:44:59 51°12.643 2°49.261 59 14.9 57 13.4
2010-04-27 13:45:59 51°12.757 2°49.611 64.4 14.8 63 13.2
2010-04-27 13:46:59 51°12.87 2°49.961 64.7 14.8 63 12.8
2010-04-27 13:47:59 51°12.983 2°50.311 64.8 14.9 63 12.7
2010-04-27 13:48:59 51°13.112 2°50.648 58.7 14.8 57 12.6
2010-04-27 13:49:59 51°13.245 2°50.979 59 14.9 58 12.5
2010-04-27 13:50:59 51°13.378 2°51.309 59 14.8 57 12.4
2010-04-27 13:51:59 51°13.511 2°51.637 58.7 14.6 57 12.3
2010-04-27 13:52:59 51°13.643 2°51.964 59 14.6 57 12.2
2010-04-27 13:53:59 51°13.775 2°52.288 58.7 14.6 56 12
2010-04-27 13:54:59 51°13.908 2°52.614 59.1 14.7 57 11.9
2010-04-27 13:55:59 51°14.044 2°52.938 56 14.7 55 11.9
2010-04-27 13:56:59 51°14.181 2°53.258 58.4 14.6 57 11.6
2010-04-27 13:57:59 51°14.316 2°53.58 58.6 14.7 56 11.2
2010-04-27 13:58:59 51°14.438 2°53.918 67.8 14.7 66 11
2010-04-27 13:59:59 51°14.525 2°54.282 72.3 14.7 69 11.2
2010-04-27 14:00:59 51°14.595 2°54.652 84.3 14.5 84 11.4
2010-04-27 14:01:59 51°14.535 2°55.007 123.5 13.7 128 13.1
2010-04-27 14:02:59 51°14.353 2°55.21 147.5 12.8 149 11.6
2010-04-27 14:03:59 51°14.187 2°55.362 153.1 10.5 155 12.3
2010-04-27 14:04:59 51°14.052 2°55.466 155.4 7.9 156 12.3
2010-04-27 14:05:59 51°13.931 2°55.552 156.3 7.9 156 12.5
2010-04-27 14:06:59 51°13.82 2°55.637 154.4 7.1 153 12.4
2010-04-27 14:08:01 51°13.737 2°55.743 133.3 5.5 132 -999
2010-04-27 14:09:02 51°13.689 2°55.849 117.4 4.3 119 -999
2010-04-27 14:10:03 51°13.666 2°55.939 110.3 2.7 109 -999